sensor_id;sensor_type;location;lat;lon;timestamp;temperature;humidity
19342;DHT22;9807;48.258;12.690;2022-08-03T00:01:54;24.10;99.90
19342;DHT22;9807;48.258;12.690;2022-08-03T00:04:20;24.10;99.90
19342;DHT22;9807;48.258;12.690;2022-08-03T00:06:46;24.00;99.90
19342;DHT22;9807;48.258;12.690;2022-08-03T00:09:12;24.00;99.90
19342;DHT22;9807;48.258;12.690;2022-08-03T00:11:38;24.00;99.90
19342;DHT22;9807;48.258;12.690;2022-08-03T00:14:04;24.00;99.90
19342;DHT22;9807;48.258;12.690;2022-08-03T00:16:30;23.90;99.90
19342;DHT22;9807;48.258;12.690;2022-08-03T00:18:56;23.90;99.90
19342;DHT22;9807;48.258;12.690;2022-08-03T00:21:22;23.90;99.90
19342;DHT22;9807;48.258;12.690;2022-08-03T00:23:48;23.90;99.90
19342;DHT22;9807;48.258;12.690;2022-08-03T00:26:14;23.90;99.90
19342;DHT22;9807;48.258;12.690;2022-08-03T00:28:39;23.80;99.90
19342;DHT22;9807;48.258;12.690;2022-08-03T00:31:06;23.80;99.90
19342;DHT22;9807;48.258;12.690;2022-08-03T00:33:32;23.80;99.90
19342;DHT22;9807;48.258;12.690;2022-08-03T00:35:58;23.70;99.90
19342;DHT22;9807;48.258;12.690;2022-08-03T00:38:24;23.70;99.90
19342;DHT22;9807;48.258;12.690;2022-08-03T00:40:49;23.70;99.90
19342;DHT22;9807;48.258;12.690;2022-08-03T00:43:15;23.70;99.90
19342;DHT22;9807;48.258;12.690;2022-08-03T00:45:42;23.70;99.90
19342;DHT22;9807;48.258;12.690;2022-08-03T00:48:10;23.70;99.90
19342;DHT22;9807;48.258;12.690;2022-08-03T00:50:41;23.60;99.90
19342;DHT22;9807;48.258;12.690;2022-08-03T00:53:10;23.60;99.90
19342;DHT22;9807;48.258;12.690;2022-08-03T00:55:39;23.60;99.90
19342;DHT22;9807;48.258;12.690;2022-08-03T00:58:06;23.50;99.90
19342;DHT22;9807;48.258;12.690;2022-08-03T01:00:34;23.60;99.90
19342;DHT22;9807;48.258;12.690;2022-08-03T01:03:01;23.50;99.90
19342;DHT22;9807;48.258;12.690;2022-08-03T01:05:27;23.50;99.90
19342;DHT22;9807;48.258;12.690;2022-08-03T01:11:16;23.50;99.90
19342;DHT22;9807;48.258;12.690;2022-08-03T01:13:47;23.40;99.90
19342;DHT22;9807;48.258;12.690;2022-08-03T01:16:25;23.40;99.90
19342;DHT22;9807;48.258;12.690;2022-08-03T01:18:57;23.40;99.90
19342;DHT22;9807;48.258;12.690;2022-08-03T01:21:31;23.40;99.90
19342;DHT22;9807;48.258;12.690;2022-08-03T01:24:19;23.40;99.90
19342;DHT22;9807;48.258;12.690;2022-08-03T01:29:59;23.30;99.90
19342;DHT22;9807;48.258;12.690;2022-08-03T01:32:47;23.30;99.90
19342;DHT22;9807;48.258;12.690;2022-08-03T01:35:21;23.30;99.90
19342;DHT22;9807;48.258;12.690;2022-08-03T01:38:00;23.30;99.90
19342;DHT22;9807;48.258;12.690;2022-08-03T01:40:27;23.20;99.90
19342;DHT22;9807;48.258;12.690;2022-08-03T01:42:54;23.20;99.90
19342;DHT22;9807;48.258;12.690;2022-08-03T01:45:23;23.20;99.90
19342;DHT22;9807;48.258;12.690;2022-08-03T01:47:50;23.20;99.90
19342;DHT22;9807;48.258;12.690;2022-08-03T01:50:23;23.20;99.90
19342;DHT22;9807;48.258;12.690;2022-08-03T01:52:51;23.20;99.90
19342;DHT22;9807;48.258;12.690;2022-08-03T01:55:19;23.10;99.90
19342;DHT22;9807;48.258;12.690;2022-08-03T01:57:47;23.10;99.90
19342;DHT22;9807;48.258;12.690;2022-08-03T02:00:13;23.10;99.90
19342;DHT22;9807;48.258;12.690;2022-08-03T02:02:41;23.10;99.90
19342;DHT22;9807;48.258;12.690;2022-08-03T02:05:10;23.10;99.90
19342;DHT22;9807;48.258;12.690;2022-08-03T02:07:37;23.00;99.90
19342;DHT22;9807;48.258;12.690;2022-08-03T02:10:05;23.00;99.90
19342;DHT22;9807;48.258;12.690;2022-08-03T02:12:32;23.00;99.90
19342;DHT22;9807;48.258;12.690;2022-08-03T02:14:59;23.00;99.90
19342;DHT22;9807;48.258;12.690;2022-08-03T02:17:27;23.00;99.90
19342;DHT22;9807;48.258;12.690;2022-08-03T02:19:56;23.00;99.90
19342;DHT22;9807;48.258;12.690;2022-08-03T02:22:24;22.90;99.90
19342;DHT22;9807;48.258;12.690;2022-08-03T02:24:50;22.90;99.90
19342;DHT22;9807;48.258;12.690;2022-08-03T02:27:24;22.90;99.90
19342;DHT22;9807;48.258;12.690;2022-08-03T02:29:54;22.90;99.90
19342;DHT22;9807;48.258;12.690;2022-08-03T02:32:32;22.90;99.90
19342;DHT22;9807;48.258;12.690;2022-08-03T02:35:00;22.80;99.90
19342;DHT22;9807;48.258;12.690;2022-08-03T02:37:31;22.80;99.90
19342;DHT22;9807;48.258;12.690;2022-08-03T02:40:02;22.80;99.90
19342;DHT22;9807;48.258;12.690;2022-08-03T02:42:30;22.80;99.90
19342;DHT22;9807;48.258;12.690;2022-08-03T02:45:00;22.80;99.90
19342;DHT22;9807;48.258;12.690;2022-08-03T02:47:27;22.70;99.90
19342;DHT22;9807;48.258;12.690;2022-08-03T02:49:56;22.70;99.90
19342;DHT22;9807;48.258;12.690;2022-08-03T02:52:28;22.70;99.90
19342;DHT22;9807;48.258;12.690;2022-08-03T02:54:59;22.70;99.90
19342;DHT22;9807;48.258;12.690;2022-08-03T02:57:27;22.70;99.90
19342;DHT22;9807;48.258;12.690;2022-08-03T02:59:54;22.60;99.90
19342;DHT22;9807;48.258;12.690;2022-08-03T03:02:21;22.60;99.90
19342;DHT22;9807;48.258;12.690;2022-08-03T03:04:50;22.60;99.90
19342;DHT22;9807;48.258;12.690;2022-08-03T03:07:17;22.60;99.90
19342;DHT22;9807;48.258;12.690;2022-08-03T03:09:44;22.60;99.90
19342;DHT22;9807;48.258;12.690;2022-08-03T03:12:12;22.50;99.90
19342;DHT22;9807;48.258;12.690;2022-08-03T03:14:38;22.50;99.90
19342;DHT22;9807;48.258;12.690;2022-08-03T03:17:08;22.50;99.90
19342;DHT22;9807;48.258;12.690;2022-08-03T03:19:36;22.50;99.90
19342;DHT22;9807;48.258;12.690;2022-08-03T03:22:04;22.50;99.90
19342;DHT22;9807;48.258;12.690;2022-08-03T03:24:32;22.40;99.90
19342;DHT22;9807;48.258;12.690;2022-08-03T03:26:59;22.50;99.90
19342;DHT22;9807;48.258;12.690;2022-08-03T03:29:25;22.40;99.90
19342;DHT22;9807;48.258;12.690;2022-08-03T03:31:51;22.40;99.90
19342;DHT22;9807;48.258;12.690;2022-08-03T03:34:17;22.40;99.90
19342;DHT22;9807;48.258;12.690;2022-08-03T03:36:43;22.40;99.90
19342;DHT22;9807;48.258;12.690;2022-08-03T03:39:09;22.40;99.90
19342;DHT22;9807;48.258;12.690;2022-08-03T03:41:35;22.40;99.90
19342;DHT22;9807;48.258;12.690;2022-08-03T03:44:01;22.40;99.90
19342;DHT22;9807;48.258;12.690;2022-08-03T03:46:27;22.30;99.90
19342;DHT22;9807;48.258;12.690;2022-08-03T03:48:53;22.30;99.90
19342;DHT22;9807;48.258;12.690;2022-08-03T03:51:19;22.30;99.90
19342;DHT22;9807;48.258;12.690;2022-08-03T03:53:55;22.30;99.90
19342;DHT22;9807;48.258;12.690;2022-08-03T03:56:21;22.30;99.90
19342;DHT22;9807;48.258;12.690;2022-08-03T03:58:47;22.30;99.90
19342;DHT22;9807;48.258;12.690;2022-08-03T04:01:13;22.30;99.90
19342;DHT22;9807;48.258;12.690;2022-08-03T04:03:39;22.20;99.90
19342;DHT22;9807;48.258;12.690;2022-08-03T04:06:05;22.20;99.90
19342;DHT22;9807;48.258;12.690;2022-08-03T04:08:50;22.20;99.90
19342;DHT22;9807;48.258;12.690;2022-08-03T04:11:38;22.20;99.90
19342;DHT22;9807;48.258;12.690;2022-08-03T04:14:28;22.20;99.90
19342;DHT22;9807;48.258;12.690;2022-08-03T04:17:00;22.20;99.90
19342;DHT22;9807;48.258;12.690;2022-08-03T04:19:39;22.20;99.90
19342;DHT22;9807;48.258;12.690;2022-08-03T04:22:09;22.20;99.90
19342;DHT22;9807;48.258;12.690;2022-08-03T04:24:45;22.20;99.90
19342;DHT22;9807;48.258;12.690;2022-08-03T04:27:14;22.10;99.90
19342;DHT22;9807;48.258;12.690;2022-08-03T04:29:44;22.10;99.90
19342;DHT22;9807;48.258;12.690;2022-08-03T04:32:11;22.10;99.90
19342;DHT22;9807;48.258;12.690;2022-08-03T04:34:37;22.20;99.90
19342;DHT22;9807;48.258;12.690;2022-08-03T04:37:11;22.10;99.90
19342;DHT22;9807;48.258;12.690;2022-08-03T04:39:41;22.10;99.90
19342;DHT22;9807;48.258;12.690;2022-08-03T04:42:10;22.10;99.90
19342;DHT22;9807;48.258;12.690;2022-08-03T04:44:40;22.10;99.90
19342;DHT22;9807;48.258;12.690;2022-08-03T04:47:07;22.20;99.90
19342;DHT22;9807;48.258;12.690;2022-08-03T04:49:35;22.20;99.90
19342;DHT22;9807;48.258;12.690;2022-08-03T04:52:03;22.20;99.90
19342;DHT22;9807;48.258;12.690;2022-08-03T04:54:29;22.20;99.90
19342;DHT22;9807;48.258;12.690;2022-08-03T04:56:55;22.20;99.90
19342;DHT22;9807;48.258;12.690;2022-08-03T04:59:21;22.20;99.90
19342;DHT22;9807;48.258;12.690;2022-08-03T05:01:47;22.20;99.90
19342;DHT22;9807;48.258;12.690;2022-08-03T05:04:12;22.20;99.90
19342;DHT22;9807;48.258;12.690;2022-08-03T05:06:39;22.20;99.90
19342;DHT22;9807;48.258;12.690;2022-08-03T05:09:05;22.10;99.90
19342;DHT22;9807;48.258;12.690;2022-08-03T05:11:30;22.20;99.90
19342;DHT22;9807;48.258;12.690;2022-08-03T05:13:56;22.20;99.90
19342;DHT22;9807;48.258;12.690;2022-08-03T05:16:22;22.20;99.90
19342;DHT22;9807;48.258;12.690;2022-08-03T05:18:50;22.20;99.90
19342;DHT22;9807;48.258;12.690;2022-08-03T05:21:15;22.20;99.90
19342;DHT22;9807;48.258;12.690;2022-08-03T05:23:42;22.20;99.90
19342;DHT22;9807;48.258;12.690;2022-08-03T05:26:08;22.30;99.90
19342;DHT22;9807;48.258;12.690;2022-08-03T05:28:37;22.10;99.90
19342;DHT22;9807;48.258;12.690;2022-08-03T05:31:05;22.00;99.90
19342;DHT22;9807;48.258;12.690;2022-08-03T05:33:31;21.90;99.90
19342;DHT22;9807;48.258;12.690;2022-08-03T05:35:57;22.00;99.90
19342;DHT22;9807;48.258;12.690;2022-08-03T05:38:26;22.00;99.90
19342;DHT22;9807;48.258;12.690;2022-08-03T05:40:52;22.10;99.90
19342;DHT22;9807;48.258;12.690;2022-08-03T05:43:17;22.10;99.90
19342;DHT22;9807;48.258;12.690;2022-08-03T05:45:43;22.30;99.90
19342;DHT22;9807;48.258;12.690;2022-08-03T05:48:09;22.50;99.90
19342;DHT22;9807;48.258;12.690;2022-08-03T05:50:35;22.70;99.90
19342;DHT22;9807;48.258;12.690;2022-08-03T05:53:01;23.00;99.90
19342;DHT22;9807;48.258;12.690;2022-08-03T05:55:27;22.90;99.90
19342;DHT22;9807;48.258;12.690;2022-08-03T05:57:56;23.00;99.90
19342;DHT22;9807;48.258;12.690;2022-08-03T06:00:21;23.30;99.90
19342;DHT22;9807;48.258;12.690;2022-08-03T06:02:47;23.60;99.90
19342;DHT22;9807;48.258;12.690;2022-08-03T06:05:13;23.80;99.90
19342;DHT22;9807;48.258;12.690;2022-08-03T06:07:39;23.90;99.90
19342;DHT22;9807;48.258;12.690;2022-08-03T06:10:05;24.10;99.90
19342;DHT22;9807;48.258;12.690;2022-08-03T06:12:31;24.40;99.90
19342;DHT22;9807;48.258;12.690;2022-08-03T06:15:00;24.50;99.90
19342;DHT22;9807;48.258;12.690;2022-08-03T06:17:27;24.60;99.90
19342;DHT22;9807;48.258;12.690;2022-08-03T06:19:53;24.70;99.90
19342;DHT22;9807;48.258;12.690;2022-08-03T06:22:19;24.90;99.90
19342;DHT22;9807;48.258;12.690;2022-08-03T06:24:44;24.80;99.90
19342;DHT22;9807;48.258;12.690;2022-08-03T06:27:10;24.70;99.90
19342;DHT22;9807;48.258;12.690;2022-08-03T06:29:37;24.40;99.90
19342;DHT22;9807;48.258;12.690;2022-08-03T06:32:03;24.20;99.90
19342;DHT22;9807;48.258;12.690;2022-08-03T06:34:28;24.00;99.90
19342;DHT22;9807;48.258;12.690;2022-08-03T06:36:54;24.00;99.90
19342;DHT22;9807;48.258;12.690;2022-08-03T06:39:20;24.50;99.90
19342;DHT22;9807;48.258;12.690;2022-08-03T06:41:46;25.20;99.90
19342;DHT22;9807;48.258;12.690;2022-08-03T06:44:12;25.80;99.90
19342;DHT22;9807;48.258;12.690;2022-08-03T06:46:38;26.10;99.90
19342;DHT22;9807;48.258;12.690;2022-08-03T06:49:06;26.40;99.90
19342;DHT22;9807;48.258;12.690;2022-08-03T06:51:31;26.60;99.90
19342;DHT22;9807;48.258;12.690;2022-08-03T06:53:57;27.00;99.90
19342;DHT22;9807;48.258;12.690;2022-08-03T06:56:23;27.30;99.90
19342;DHT22;9807;48.258;12.690;2022-08-03T06:58:49;26.90;99.90
19342;DHT22;9807;48.258;12.690;2022-08-03T07:01:15;26.50;99.90
19342;DHT22;9807;48.258;12.690;2022-08-03T07:03:40;26.40;99.90
19342;DHT22;9807;48.258;12.690;2022-08-03T07:06:06;26.90;99.90
19342;DHT22;9807;48.258;12.690;2022-08-03T07:08:35;27.30;99.90
19342;DHT22;9807;48.258;12.690;2022-08-03T07:11:01;27.70;99.90
19342;DHT22;9807;48.258;12.690;2022-08-03T07:13:29;28.10;99.90
19342;DHT22;9807;48.258;12.690;2022-08-03T07:15:55;28.20;99.90
19342;DHT22;9807;48.258;12.690;2022-08-03T07:18:21;27.90;99.90
19342;DHT22;9807;48.258;12.690;2022-08-03T07:20:47;28.20;99.90
19342;DHT22;9807;48.258;12.690;2022-08-03T07:23:13;28.80;99.90
19342;DHT22;9807;48.258;12.690;2022-08-03T07:25:39;29.10;99.90
19342;DHT22;9807;48.258;12.690;2022-08-03T07:28:04;28.90;99.90
19342;DHT22;9807;48.258;12.690;2022-08-03T07:30:31;29.00;99.90
19342;DHT22;9807;48.258;12.690;2022-08-03T07:32:56;28.80;99.90
19342;DHT22;9807;48.258;12.690;2022-08-03T07:35:22;28.70;99.90
19342;DHT22;9807;48.258;12.690;2022-08-03T07:37:48;28.50;99.90
19342;DHT22;9807;48.258;12.690;2022-08-03T07:40:13;28.20;99.90
19342;DHT22;9807;48.258;12.690;2022-08-03T07:42:39;28.70;99.90
19342;DHT22;9807;48.258;12.690;2022-08-03T07:45:05;29.10;99.90
19342;DHT22;9807;48.258;12.690;2022-08-03T07:47:35;29.50;99.90
19342;DHT22;9807;48.258;12.690;2022-08-03T07:50:01;29.80;99.90
19342;DHT22;9807;48.258;12.690;2022-08-03T07:52:27;29.80;99.90
19342;DHT22;9807;48.258;12.690;2022-08-03T07:55:11;30.20;99.90
19342;DHT22;9807;48.258;12.690;2022-08-03T07:57:37;30.70;99.90
19342;DHT22;9807;48.258;12.690;2022-08-03T08:00:05;30.80;99.90
19342;DHT22;9807;48.258;12.690;2022-08-03T08:02:31;30.70;99.90
19342;DHT22;9807;48.258;12.690;2022-08-03T08:04:57;30.40;99.90
19342;DHT22;9807;48.258;12.690;2022-08-03T08:07:23;30.60;99.90
19342;DHT22;9807;48.258;12.690;2022-08-03T08:09:50;30.70;99.90
19342;DHT22;9807;48.258;12.690;2022-08-03T08:12:16;31.10;99.90
19342;DHT22;9807;48.258;12.690;2022-08-03T08:14:42;31.40;99.90
19342;DHT22;9807;48.258;12.690;2022-08-03T08:17:13;31.30;99.90
19342;DHT22;9807;48.258;12.690;2022-08-03T08:19:39;30.80;99.90
19342;DHT22;9807;48.258;12.690;2022-08-03T08:22:05;31.30;99.90
19342;DHT22;9807;48.258;12.690;2022-08-03T08:24:31;31.80;99.90
19342;DHT22;9807;48.258;12.690;2022-08-03T08:26:58;32.40;99.90
19342;DHT22;9807;48.258;12.690;2022-08-03T08:29:28;32.70;99.90
19342;DHT22;9807;48.258;12.690;2022-08-03T08:31:54;32.80;99.90
19342;DHT22;9807;48.258;12.690;2022-08-03T08:34:20;33.00;99.90
19342;DHT22;9807;48.258;12.690;2022-08-03T08:36:45;33.40;99.90
19342;DHT22;9807;48.258;12.690;2022-08-03T08:39:11;33.70;99.90
19342;DHT22;9807;48.258;12.690;2022-08-03T08:41:37;33.40;99.90
19342;DHT22;9807;48.258;12.690;2022-08-03T08:44:03;32.50;99.90
19342;DHT22;9807;48.258;12.690;2022-08-03T08:46:31;32.30;99.90
19342;DHT22;9807;48.258;12.690;2022-08-03T08:48:58;32.80;99.90
19342;DHT22;9807;48.258;12.690;2022-08-03T08:51:30;33.10;99.90
19342;DHT22;9807;48.258;12.690;2022-08-03T08:53:57;33.60;99.90
19342;DHT22;9807;48.258;12.690;2022-08-03T08:56:26;33.90;99.90
19342;DHT22;9807;48.258;12.690;2022-08-03T08:58:56;33.70;99.90
19342;DHT22;9807;48.258;12.690;2022-08-03T09:01:22;33.80;99.90
19342;DHT22;9807;48.258;12.690;2022-08-03T09:03:48;34.00;99.90
19342;DHT22;9807;48.258;12.690;2022-08-03T09:06:15;33.50;99.90
19342;DHT22;9807;48.258;12.690;2022-08-03T09:08:40;33.40;99.90
19342;DHT22;9807;48.258;12.690;2022-08-03T09:11:09;33.00;99.90
19342;DHT22;9807;48.258;12.690;2022-08-03T09:13:35;33.20;99.90
19342;DHT22;9807;48.258;12.690;2022-08-03T09:16:14;33.50;99.90
19342;DHT22;9807;48.258;12.690;2022-08-03T09:18:42;33.70;99.90
19342;DHT22;9807;48.258;12.690;2022-08-03T09:21:23;33.60;99.90
19342;DHT22;9807;48.258;12.690;2022-08-03T09:23:54;32.70;99.90
19342;DHT22;9807;48.258;12.690;2022-08-03T09:26:27;31.60;99.90
19342;DHT22;9807;48.258;12.690;2022-08-03T09:31:30;30.80;99.90
19342;DHT22;9807;48.258;12.690;2022-08-03T09:33:57;31.00;99.90
19342;DHT22;9807;48.258;12.690;2022-08-03T09:36:54;31.30;99.90
19342;DHT22;9807;48.258;12.690;2022-08-03T09:39:25;31.30;99.90
19342;DHT22;9807;48.258;12.690;2022-08-03T09:42:10;31.30;99.90
19342;DHT22;9807;48.258;12.690;2022-08-03T09:44:38;31.50;99.90
19342;DHT22;9807;48.258;12.690;2022-08-03T09:47:07;31.70;99.90
19342;DHT22;9807;48.258;12.690;2022-08-03T09:49:37;31.90;99.90
19342;DHT22;9807;48.258;12.690;2022-08-03T09:52:17;32.10;99.90
19342;DHT22;9807;48.258;12.690;2022-08-03T09:54:44;32.10;99.90
19342;DHT22;9807;48.258;12.690;2022-08-03T09:57:25;32.10;99.90
19342;DHT22;9807;48.258;12.690;2022-08-03T09:59:52;32.10;99.90
19342;DHT22;9807;48.258;12.690;2022-08-03T10:02:23;31.70;99.90
19342;DHT22;9807;48.258;12.690;2022-08-03T10:04:50;31.50;99.90
19342;DHT22;9807;48.258;12.690;2022-08-03T10:07:21;31.50;99.90
19342;DHT22;9807;48.258;12.690;2022-08-03T10:10:05;31.60;99.90
19342;DHT22;9807;48.258;12.690;2022-08-03T10:12:31;31.50;99.90
19342;DHT22;9807;48.258;12.690;2022-08-03T10:14:58;31.30;99.90
19342;DHT22;9807;48.258;12.690;2022-08-03T10:17:26;31.20;99.90
19342;DHT22;9807;48.258;12.690;2022-08-03T10:19:52;31.10;99.90
19342;DHT22;9807;48.258;12.690;2022-08-03T10:22:23;31.00;99.90
19342;DHT22;9807;48.258;12.690;2022-08-03T10:24:58;30.80;99.90
19342;DHT22;9807;48.258;12.690;2022-08-03T10:27:26;30.60;99.90
19342;DHT22;9807;48.258;12.690;2022-08-03T10:30:00;30.50;99.90
19342;DHT22;9807;48.258;12.690;2022-08-03T10:32:41;30.60;99.90
19342;DHT22;9807;48.258;12.690;2022-08-03T10:35:12;30.80;99.90
19342;DHT22;9807;48.258;12.690;2022-08-03T10:37:43;30.70;99.90
19342;DHT22;9807;48.258;12.690;2022-08-03T10:40:14;30.50;99.90
19342;DHT22;9807;48.258;12.690;2022-08-03T10:42:46;30.50;99.90
19342;DHT22;9807;48.258;12.690;2022-08-03T10:45:25;30.60;99.90
19342;DHT22;9807;48.258;12.690;2022-08-03T10:47:56;30.60;99.90
19342;DHT22;9807;48.258;12.690;2022-08-03T10:50:24;30.50;99.90
19342;DHT22;9807;48.258;12.690;2022-08-03T10:53:02;30.40;99.90
19342;DHT22;9807;48.258;12.690;2022-08-03T11:01:10;30.30;99.90
19342;DHT22;9807;48.258;12.690;2022-08-03T11:06:19;30.30;99.90
19342;DHT22;9807;48.258;12.690;2022-08-03T11:08:49;30.30;99.90
19342;DHT22;9807;48.258;12.690;2022-08-03T11:14:04;30.40;99.90
19342;DHT22;9807;48.258;12.690;2022-08-03T11:16:37;30.40;99.90
19342;DHT22;9807;48.258;12.690;2022-08-03T11:19:07;30.40;99.90
19342;DHT22;9807;48.258;12.690;2022-08-03T11:27:26;30.30;99.90
19342;DHT22;9807;48.258;12.690;2022-08-03T11:35:15;30.40;99.90
19342;DHT22;9807;48.258;12.690;2022-08-03T11:46:05;30.50;99.90
19342;DHT22;9807;48.258;12.690;2022-08-03T11:48:40;30.60;99.90
19342;DHT22;9807;48.258;12.690;2022-08-03T11:51:28;30.40;99.90
19342;DHT22;9807;48.258;12.690;2022-08-03T11:56:22;30.60;99.90
19342;DHT22;9807;48.258;12.690;2022-08-03T11:58:51;30.70;99.90
19342;DHT22;9807;48.258;12.690;2022-08-03T12:01:19;30.80;99.90
19342;DHT22;9807;48.258;12.690;2022-08-03T12:03:45;30.80;99.90
19342;DHT22;9807;48.258;12.690;2022-08-03T12:06:13;30.80;99.90
19342;DHT22;9807;48.258;12.690;2022-08-03T12:08:43;30.90;99.90
19342;DHT22;9807;48.258;12.690;2022-08-03T12:11:11;30.90;99.90
19342;DHT22;9807;48.258;12.690;2022-08-03T12:13:56;30.90;99.90
19342;DHT22;9807;48.258;12.690;2022-08-03T12:16:23;31.00;99.90
19342;DHT22;9807;48.258;12.690;2022-08-03T12:18:56;30.90;99.90
19342;DHT22;9807;48.258;12.690;2022-08-03T12:21:22;30.90;99.90
19342;DHT22;9807;48.258;12.690;2022-08-03T12:23:49;31.00;99.90
19342;DHT22;9807;48.258;12.690;2022-08-03T12:26:15;30.80;99.90
19342;DHT22;9807;48.258;12.690;2022-08-03T12:28:48;31.00;99.90
19342;DHT22;9807;48.258;12.690;2022-08-03T12:31:14;31.00;99.90
19342;DHT22;9807;48.258;12.690;2022-08-03T12:34:03;30.90;99.90
19342;DHT22;9807;48.258;12.690;2022-08-03T12:36:34;31.10;99.90
19342;DHT22;9807;48.258;12.690;2022-08-03T12:39:02;31.20;99.90
19342;DHT22;9807;48.258;12.690;2022-08-03T12:41:29;31.20;99.90
19342;DHT22;9807;48.258;12.690;2022-08-03T12:43:56;31.10;99.90
19342;DHT22;9807;48.258;12.690;2022-08-03T12:46:22;30.90;99.90
19342;DHT22;9807;48.258;12.690;2022-08-03T12:49:05;31.00;99.90
19342;DHT22;9807;48.258;12.690;2022-08-03T12:51:55;31.20;99.90
19342;DHT22;9807;48.258;12.690;2022-08-03T12:54:26;31.20;99.90
19342;DHT22;9807;48.258;12.690;2022-08-03T12:57:04;31.10;99.90
19342;DHT22;9807;48.258;12.690;2022-08-03T12:59:36;31.20;99.90
19342;DHT22;9807;48.258;12.690;2022-08-03T13:02:03;31.30;99.90
19342;DHT22;9807;48.258;12.690;2022-08-03T13:04:31;31.20;99.90
19342;DHT22;9807;48.258;12.690;2022-08-03T13:07:02;31.20;99.90
19342;DHT22;9807;48.258;12.690;2022-08-03T13:09:30;31.20;99.90
19342;DHT22;9807;48.258;12.690;2022-08-03T13:12:19;31.30;99.90
19342;DHT22;9807;48.258;12.690;2022-08-03T13:14:47;31.20;99.90
19342;DHT22;9807;48.258;12.690;2022-08-03T13:17:13;31.30;99.90
19342;DHT22;9807;48.258;12.690;2022-08-03T13:19:41;31.20;99.90
19342;DHT22;9807;48.258;12.690;2022-08-03T13:24:38;31.10;99.90
19342;DHT22;9807;48.258;12.690;2022-08-03T13:27:04;31.20;99.90
19342;DHT22;9807;48.258;12.690;2022-08-03T13:29:32;31.40;99.90
19342;DHT22;9807;48.258;12.690;2022-08-03T13:31:57;31.20;99.90
19342;DHT22;9807;48.258;12.690;2022-08-03T13:34:23;31.40;99.90
19342;DHT22;9807;48.258;12.690;2022-08-03T13:36:52;31.70;99.90
19342;DHT22;9807;48.258;12.690;2022-08-03T13:39:17;31.90;99.90
19342;DHT22;9807;48.258;12.690;2022-08-03T13:41:44;32.00;99.90
19342;DHT22;9807;48.258;12.690;2022-08-03T13:44:11;32.20;99.90
19342;DHT22;9807;48.258;12.690;2022-08-03T13:46:36;32.20;99.90
19342;DHT22;9807;48.258;12.690;2022-08-03T13:49:02;32.30;99.90
19342;DHT22;9807;48.258;12.690;2022-08-03T13:51:29;32.40;99.90
19342;DHT22;9807;48.258;12.690;2022-08-03T13:53:54;32.40;99.90
19342;DHT22;9807;48.258;12.690;2022-08-03T13:56:21;32.30;99.90
19342;DHT22;9807;48.258;12.690;2022-08-03T13:58:50;32.30;99.90
19342;DHT22;9807;48.258;12.690;2022-08-03T14:01:16;32.10;99.90
19342;DHT22;9807;48.258;12.690;2022-08-03T14:03:42;31.90;99.90
19342;DHT22;9807;48.258;12.690;2022-08-03T14:06:08;31.70;99.90
19342;DHT22;9807;48.258;12.690;2022-08-03T14:08:33;31.70;99.90
19342;DHT22;9807;48.258;12.690;2022-08-03T14:10:59;32.00;99.90
19342;DHT22;9807;48.258;12.690;2022-08-03T14:13:25;32.00;99.90
19342;DHT22;9807;48.258;12.690;2022-08-03T14:15:51;32.30;99.90
19342;DHT22;9807;48.258;12.690;2022-08-03T14:18:18;32.30;99.90
19342;DHT22;9807;48.258;12.690;2022-08-03T14:20:45;32.10;99.90
19342;DHT22;9807;48.258;12.690;2022-08-03T14:23:10;32.10;99.90
19342;DHT22;9807;48.258;12.690;2022-08-03T14:25:37;32.30;99.90
19342;DHT22;9807;48.258;12.690;2022-08-03T14:28:06;32.40;99.90
19342;DHT22;9807;48.258;12.690;2022-08-03T14:30:32;32.50;99.90
19342;DHT22;9807;48.258;12.690;2022-08-03T14:32:58;32.70;99.90
19342;DHT22;9807;48.258;12.690;2022-08-03T14:35:24;32.70;99.90
19342;DHT22;9807;48.258;12.690;2022-08-03T14:37:50;32.70;99.90
19342;DHT22;9807;48.258;12.690;2022-08-03T14:40:16;32.40;99.90
19342;DHT22;9807;48.258;12.690;2022-08-03T14:42:42;32.30;99.90
19342;DHT22;9807;48.258;12.690;2022-08-03T14:45:08;32.30;99.90
19342;DHT22;9807;48.258;12.690;2022-08-03T14:47:34;32.50;99.90
19342;DHT22;9807;48.258;12.690;2022-08-03T14:50:00;32.70;99.90
19342;DHT22;9807;48.258;12.690;2022-08-03T14:52:29;32.80;99.90
19342;DHT22;9807;48.258;12.690;2022-08-03T14:54:54;33.00;99.90
19342;DHT22;9807;48.258;12.690;2022-08-03T14:57:20;32.80;99.90
19342;DHT22;9807;48.258;12.690;2022-08-03T14:59:46;32.60;99.90
19342;DHT22;9807;48.258;12.690;2022-08-03T15:02:12;32.70;99.90
19342;DHT22;9807;48.258;12.690;2022-08-03T15:04:38;32.90;99.90
19342;DHT22;9807;48.258;12.690;2022-08-03T15:07:04;33.00;99.90
19342;DHT22;9807;48.258;12.690;2022-08-03T15:09:30;32.90;99.90
19342;DHT22;9807;48.258;12.690;2022-08-03T15:11:55;32.80;99.90
19342;DHT22;9807;48.258;12.690;2022-08-03T15:14:21;32.90;99.90
19342;DHT22;9807;48.258;12.690;2022-08-03T15:16:47;32.90;99.90
19342;DHT22;9807;48.258;12.690;2022-08-03T15:19:13;32.80;99.90
19342;DHT22;9807;48.258;12.690;2022-08-03T15:21:38;32.60;99.90
19342;DHT22;9807;48.258;12.690;2022-08-03T15:24:04;32.40;99.90
19342;DHT22;9807;48.258;12.690;2022-08-03T15:26:30;32.50;99.90
19342;DHT22;9807;48.258;12.690;2022-08-03T15:28:56;32.60;99.90
19342;DHT22;9807;48.258;12.690;2022-08-03T15:31:23;32.60;99.90
19342;DHT22;9807;48.258;12.690;2022-08-03T15:33:49;32.40;99.90
19342;DHT22;9807;48.258;12.690;2022-08-03T15:36:18;32.30;99.90
19342;DHT22;9807;48.258;12.690;2022-08-03T15:38:44;32.50;99.90
19342;DHT22;9807;48.258;12.690;2022-08-03T15:41:17;32.70;99.90
19342;DHT22;9807;48.258;12.690;2022-08-03T15:43:44;32.60;99.90
19342;DHT22;9807;48.258;12.690;2022-08-03T15:46:11;32.70;99.90
19342;DHT22;9807;48.258;12.690;2022-08-03T15:48:38;32.70;99.90
19342;DHT22;9807;48.258;12.690;2022-08-03T15:51:07;32.60;99.90
19342;DHT22;9807;48.258;12.690;2022-08-03T15:53:33;32.40;99.90
19342;DHT22;9807;48.258;12.690;2022-08-03T15:56:00;32.30;99.90
19342;DHT22;9807;48.258;12.690;2022-08-03T15:58:26;32.50;99.90
19342;DHT22;9807;48.258;12.690;2022-08-03T16:00:58;32.70;99.90
19342;DHT22;9807;48.258;12.690;2022-08-03T16:03:25;32.70;99.90
19342;DHT22;9807;48.258;12.690;2022-08-03T16:05:53;32.50;99.90
19342;DHT22;9807;48.258;12.690;2022-08-03T16:08:19;32.50;99.90
19342;DHT22;9807;48.258;12.690;2022-08-03T16:10:50;32.50;99.90
19342;DHT22;9807;48.258;12.690;2022-08-03T16:13:16;32.50;99.90
19342;DHT22;9807;48.258;12.690;2022-08-03T16:15:42;32.70;99.90
19342;DHT22;9807;48.258;12.690;2022-08-03T16:18:10;32.70;99.90
19342;DHT22;9807;48.258;12.690;2022-08-03T16:20:36;32.50;99.90
19342;DHT22;9807;48.258;12.690;2022-08-03T16:23:03;32.40;99.90